Tiempo atmosférico en la estación meteorológica de Puerto El Pico, Ávila (1285 m.)



Fecha
DESCASC
Temp. máxima en grados centígrados (hora)
DESCASC
Temp. mínima en grados centígrados (hora)
DESCASC
Temp. media en grados centígrados
DESCASC
Racha de viento máxima en m/sg (hora)
DESCASC
Velocidad máxima media en intervalos de 10 minutos(hora)
DESCASC
Precipitaciones diarias en mm
DESCASC
Precipitaciones de 00:00 a 06:00 en mm
DESCASC
Precipitaciones de 06:00 a 12:00 en mm
DESCASC
Precipitaciones de 12:00 a 18:00 en mm
DESCASC
Precipitaciones de 18:00 a 24:00 en mm
DESCASC
13-01-2021 10.7 (17:00) -12.1 (08:40) -0.7 4.17 (14:20) 3.33 (14:40) 0 0 0 0 0
12-01-2021 8.5 (15:50) -16.4 (04:20) -3.9 2.22 (14:10) 1.67 (15:50) 0 0 0 0 0
11-01-2021 -0.5 (15:40) -14.6 (23:50) -7.6 7.5 (13:30) 5 (13:30) 0.2 0 0.2 0 0
10-01-2021 -2.4 (13:30) -8.9 (07:20) -5.6 9.17 (22:20) 6.39 (22:30) 0 0 0 0 0
09-01-2021 -2.1 (13:00) -4.3 (-00:0) -3.2 6.11 (05:10) 3.61 (01:40) 6.2 2.8 2.2 1.2 0
08-01-2021 -1.5 (14:30) -13.1 (-00:0) -7.3 4.44 (20:50) 2.78 (12:00) 10.6 0 0 4.2 6.4
07-01-2021 -1.5 (17:10) -9.5 (-00:0) -5.5 3.89 (12:00) 3.06 (12:00) 0 0 0 0 0
06-01-2021 4 (15:20) -14.1 (-00:0) -5.1 5.28 (14:00) 3.06 (14:00) 0 0 0 0 0
05-01-2021 2.4 (15:20) -13.5 (-00:0) -5.5 6.39 (16:30) 3.61 (16:10) 0 0 0 0 0
04-01-2021 1.1 (14:30) -7.4 (-00:0) -3.2 8.61 (16:00) 4.72 (16:00) 0 0 0 0 0
03-01-2021 3.8 (13:30) -7.1 (-00:0) -1.6 10.28 (01:40) 6.94 (01:40) 0 0 0 0 0
02-01-2021 0.4 (14:50) -4.7 (-00:0) -2.1 11.67 (12:10) 7.5 (21:00) 0 0 0 0 0
01-01-2021 1.3 (12:20) -3.3 (-00:0) -1 11.11 (15:40) 6.67 (22:30) 0.4 0.4 0 0 0
31-12-2020 7 (14:00) -6.1 (-00:0) 0.5 8.33 (13:10) 5 (23:50) 1.8 0 0 0 1.8
30-12-2020 4.4 (14:30) -3 (-00:0) 0.7 10.83 (01:50) 6.11 (00:20) 0 0 0 0 0
29-12-2020 2.1 (12:20) -1.8 (-00:0) 0.1 11.39 (15:10) 5.83 (15:10) 0.2 0 0 0.2 0
28-12-2020 6.2 (02:40) -1.1 (-00:0) 2.5 20.28 (07:10) 11.11 (07:10) 2.6 2.4 0.2 0 0
27-12-2020 9.7 (14:20) -8.1 (-00:0) 0.8 16.39 (22:40) 8.89 (22:40) 0 0 0 0 0
26-12-2020 6.1 (16:00) -7.2 (-00:0) -0.5 8.06 (05:50) 4.72 (00:20) 0 0 0 0 0
25-12-2020 3 (14:00) -4.4 (-00:0) -0.7 12.22 (14:40) 8.33 (14:50) 0 0 0 0 0
24-12-2020 5.3 (16:00) -2.2 (-00:0) 1.6 4.72 (17:10) 3.06 (16:50) 0 0 0 0 0
23-12-2020 7.8 (00:30) 4.7 (00:00) 6.3 9.72 (14:20) 5.28 (14:20) 0 0 0 0 0
22-12-2020 13.9 (16:00) -0.1 (00:00) 6.9 6.94 (18:30) 4.17 (12:10) 0 0 0 0 0
21-12-2020 14.6 (13:20) 2.2 (00:00) 8.4 6.11 (07:10) 3.33 (07:10) 0 0 0 0 0
20-12-2020 8.3 (14:10) -2.1 (-00:0) 3.1 7.5 (14:50) 4.17 (14:50) 0 0 0 0 0
19-12-2020 4.9 (14:50) 2.4 (00:00) 3.7 14.72 (07:20) 7.78 (06:30) 5.2 0.8 1.6 2.8 0

Gráficas

Temp. máximas Temp. mínimas Temp. medias Precipitaciones Rachas de viento máximas Velocidades máximas media en intervalos de 10 minutos

Datos horarios

Fecha y hora oficial Temperatura (ºC) Velocidad del viento (km/h) Dirección del viento Racha (km/h) Dirección de racha Precipitación (mm) Presión (hPa) Tendencia (hPa) Humedad (%)
2021-01-17 23:00:00 -4.8 2 Sur 5 Sudoeste 0 -- -- 94
2021-01-17 22:00:00 -4.6 0 Calma 3 Sudeste 0 -- -- 92
2021-01-17 21:00:00 -4 0 Calma 4 Sur 0 -- -- 91
2021-01-17 20:00:00 -3 3 Sur 6 Sudeste 0 -- -- 88
2021-01-17 19:00:00 -1.1 4 Sudeste 10 Sur 0 -- -- 81
2021-01-17 18:00:00 2 7 Sur 12 Sudoeste 0 -- -- 66
2021-01-17 17:00:00 11.2 2 Oeste 12 Norte 0 -- -- 38
2021-01-17 16:00:00 10.4 9 Norte 17 Norte 0 -- -- 34
2021-01-17 15:00:00 11.1 10 Norte 15 Nordeste 0 -- -- 21
2021-01-17 14:00:00 10.9 9 Nordeste 15 Nordeste 0 -- -- 17
2021-01-17 13:00:00 10.8 4 Nordeste 11 Nordeste 0 -- -- 28
2021-01-17 12:00:00 5.9 0 Calma 4 Este 0 -- -- 44
2021-01-17 11:00:00 1.8 0 Calma 5 Nordeste 0 -- -- 60
2021-01-17 10:00:00 -7 3 Sur 5 Sur 0 -- -- 90
2021-01-17 09:00:00 -9.1 0 Calma 5 Sudoeste 0 -- -- 93
2021-01-17 08:00:00 -9 0 Calma 4 Sudoeste 0 -- -- 91
2021-01-17 07:00:00 -8.1 0 Calma 3 Sur 0 -- -- 91
2021-01-17 06:00:00 -7.7 2 Sur 5 Sudoeste 0 -- -- 92
2021-01-17 05:00:00 -8 0 Calma 4 Sur 0 -- -- 89
2021-01-17 04:00:00 -7.3 0 Calma 4 Sudeste 0 -- -- 89
2021-01-17 03:00:00 -7.1 4 Sur 6 Sur 0 -- -- 86
2021-01-17 02:00:00 -6.4 2 Sur 4 Sur 0 -- -- 88
2021-01-17 01:00:00 -6.5 0 Calma 5 Sudoeste 0 -- -- 85
2021-01-17 00:00:00 -6.2 3 Sur 4 Sudoeste 0 -- -- 86
2021-01-16 23:00:00 -5.8 0 Calma 3 Sudoeste 0 -- -- 86
2021-01-16 22:00:00 -5 0 Calma 3 Sur 0 -- -- 84
2021-01-16 21:00:00 -4.7 2 Sur 3 Sur 0 -- -- 83
2021-01-16 20:00:00 -3.1 2 Sur 6 Sudeste 0 -- -- 82
2021-01-16 19:00:00 -1.3 4 Sur 9 Sur 0 -- -- 75
2021-01-16 18:00:00 1.7 7 Sur 12 Sudoeste 0 -- -- 63
2021-01-16 17:00:00 9.8 4 Sudoeste 6 Sudoeste 0 -- -- 37
2021-01-16 16:00:00 14.6 3 Norte 12 Norte 0 -- -- 22
2021-01-16 15:00:00 10.2 9 Norte 16 Norte 0 -- -- 26
2021-01-16 14:00:00 9.6 11 Nordeste 15 Nordeste 0 -- -- 28
2021-01-16 13:00:00 8.2 11 Norte 16 Norte 0 -- -- 30
2021-01-16 12:00:00 7.5 8 Nordeste 13 Este 0 -- -- 29
2021-01-16 11:00:00 3.3 0 Calma 5 Sur 0 -- -- 48
2021-01-16 10:00:00 -4.6 0 Calma 8 Sudeste 0 -- -- 83
2021-01-16 09:00:00 -6.4 3 Sur 6 Sudeste 0 -- -- 85
2021-01-16 08:00:00 -7.5 3 Sur 5 Sur 0 -- -- 85
2021-01-16 07:00:00 -7.4 2 Nordeste 5 Nordeste 0 -- -- 82
2021-01-16 06:00:00 -8.4 3 Nordeste 7 Este 0 -- -- 86
2021-01-16 05:00:00 -8.9 0 Calma 5 Sur 0 -- -- 89
2021-01-16 04:00:00 -9.4 0 Calma 4 Nordeste 0 -- -- 88
2021-01-16 03:00:00 -8.9 3 Sur 5 Sur 0 -- -- 90
2021-01-16 02:00:00 -9 2 Sur 4 Sur 0 -- -- 91
2021-01-16 01:00:00 -8.3 2 Sur 4 Sudoeste 0 -- -- 89
2021-01-16 00:00:00 -8.3 0 Calma 4 Sur 0 -- -- 89
2021-01-15 23:00:00 -7.1 0 Calma 4 Nordeste 0 -- -- 88
2021-01-15 22:00:00 -7 0 Calma 6 Norte 0 -- -- 92
2021-01-15 21:00:00 -6.1 0 Calma 4 Sudeste 0 -- -- 91
2021-01-15 20:00:00 -4.9 0 Calma 4 Sudeste 0 -- -- 88
2021-01-15 19:00:00 -2.9 0 Calma 7 Sudeste 0 -- -- 84
2021-01-15 18:00:00 1.2 5 Nordeste 18 Norte 0 -- -- 63
2021-01-15 17:00:00 6.4 8 Norte 18 Norte 0 -- -- 47
2021-01-15 16:00:00 7.5 12 Norte 19 Norte 0 -- -- 42
2021-01-15 15:00:00 10.3 3 Nordeste 12 Nordeste 0 -- -- 37
2021-01-15 14:00:00 5 11 Norte 15 Norte 0 -- -- 60
2021-01-15 13:00:00 4.4 6 Norte 14 Norte 0 -- -- 63
2021-01-15 12:00:00 2 7 Nordeste 13 Norte 0 -- -- 75
2021-01-15 11:00:00 -0.3 3 Norte 6 Norte 0 -- -- 87
2021-01-15 10:00:00 -6.8 0 Calma 6 Nordeste 0 -- -- 99
2021-01-15 09:00:00 -8.1 2 Norte 6 Sudeste 0 -- -- 97
2021-01-15 08:00:00 -8.1 3 Sur 6 Sudeste 0 -- -- 99
2021-01-15 07:00:00 -8.9 0 Calma 5 Sudeste 0 -- -- 96
2021-01-15 06:00:00 -7.9 0 Calma 5 Este 0 -- -- 99
2021-01-15 05:00:00 -6.9 0 Calma 5 Este 0 -- -- 100
2021-01-15 04:00:00 -6.1 3 Sudeste 5 Sudeste 0 -- -- 100
2021-01-15 03:00:00 -7.1 2 Sudeste 4 Sudeste 0 -- -- 91
2021-01-15 02:00:00 -6.4 2 Este 7 Este 0 -- -- 87
2021-01-15 01:00:00 -6.1 4 Sudeste 8 Este 0 -- -- 84
2021-01-15 00:00:00 -5.7 2 Nordeste 10 Nordeste 0 -- -- 79
2021-01-14 23:00:00 -4.7 3 Sudeste 9 Nordeste 0 -- -- 74
2021-01-14 22:00:00 -5.5 2 Norte 13 Norte 0 -- -- 76
2021-01-14 21:00:00 -4.6 4 Nordeste 8 Sudeste 0 -- -- 74
2021-01-14 20:00:00 -3.3 2 Sudeste 6 Sudeste 0 -- -- 74
2021-01-14 19:00:00 -2.2 6 Nordeste 8 Nordeste 0 -- -- 68
2021-01-14 18:00:00 1.9 3 Nordeste 6 Nordeste 0 -- -- 58
2021-01-14 17:00:00 11.1 0 Calma 11 Norte 0 -- -- 40
2021-01-14 16:00:00 8.1 11 Norte 15 Norte 0 -- -- 37
2021-01-14 15:00:00 7.6 15 Norte 23 Norte 0 -- -- 35
2021-01-14 14:00:00 7 19 Norte 25 Norte 0 -- -- 37
2021-01-14 13:00:00 10 0 Calma 5 Nordeste 0 -- -- 36
2021-01-14 12:00:00 3.4 0 Calma 4 Sur 0 -- -- 57
2021-01-14 11:00:00 0 2 Sur 5 Este 0 -- -- 57
2021-01-14 10:00:00 -8.4 2 Este 5 Este 0 -- -- 87
2021-01-14 09:00:00 -10.6 2 Sur 5 Sudeste 0 -- -- 90
2021-01-14 08:00:00 -11.1 2 Sur 4 Sur 0 -- -- 92
2021-01-14 07:00:00 -10.1 0 Calma 3 Sur 0 -- -- 88
2021-01-14 06:00:00 -9.8 0 Calma 4 Sudoeste 0 -- -- 89
2021-01-14 05:00:00 -9.9 0 Calma 5 Sudoeste 0 -- -- 92
2021-01-14 04:00:00 -8.7 0 Calma 6 Sudoeste 0 -- -- 94
2021-01-14 03:00:00 -8.6 0 Calma 4 Sur 0 -- -- 94
2021-01-14 02:00:00 -8.8 0 Calma 3 Sudoeste 0 -- -- 94
2021-01-14 01:00:00 -7.4 0 Calma 2 Sur 0 -- -- 94
2021-01-14 00:00:00 -7.5 0 Calma 3 Sudoeste 0 -- -- 91
2021-01-13 23:00:00 -6.6 0 Calma 4 Sudeste 0 -- -- 93
2021-01-13 22:00:00 -6.1 0 Calma 4 Noroeste 0 -- -- 92
2021-01-13 21:00:00 -4.8 0 Calma 4 Sudeste 0 -- -- 91
2021-01-13 20:00:00 -4.1 0 Calma 4 Sudoeste 0 -- -- 88
2021-01-13 19:00:00 -2.2 3 Sur 7 Sudeste 0 -- -- 85
2021-01-13 18:00:00 0.7 4 Sur 6 Sudeste 0 -- -- 77
2021-01-13 17:00:00 10.7 0 Calma 13 Norte 0 -- -- 42
2021-01-13 16:00:00 7.2 11 Norte 14 Norte 0 -- -- 44
2021-01-13 15:00:00 7.8 9 Norte 15 Norte 0 -- -- 40
2021-01-13 14:00:00 6.6 9 Norte 13 Norte 0 -- -- 47
2021-01-13 13:00:00 6.7 2 Norte 5 Nordeste 0 -- -- 53
2021-01-13 12:00:00 0.9 0 Calma 5 Sudeste 0 -- -- 91
2021-01-13 11:00:00 -3 0 Calma 5 Sudeste 0 -- -- 94
2021-01-13 10:00:00 -10.2 4 Sur 5 Sur 0 -- -- 96
2021-01-13 09:00:00 -11.4 0 Calma 4 Sudoeste 0 -- -- 94
2021-01-13 08:00:00 -11.8 0 Calma 4 Sur 0 -- -- 95
2021-01-13 07:00:00 -11.6 0 Calma 5 Sur 0 -- -- 94
2021-01-13 06:00:00 -11.4 0 Calma 5 Sudoeste 0 -- -- 95
2021-01-13 05:00:00 -11.3 0 Calma 3 Sudoeste 0 -- -- 96
2021-01-13 04:00:00 -10.5 2 Sudoeste 5 Sudoeste 0 -- -- 96
2021-01-13 03:00:00 -10.4 3 Sur 6 Sudeste 0 -- -- 94
2021-01-13 02:00:00 -10.2 0 Calma 4 Sudoeste 0 -- -- 95
2021-01-13 01:00:00 -10.2 0 Calma 4 Sudoeste 0 -- -- 95
2021-01-13 00:00:00 -9.1 0 Calma 6 Sudoeste 0 -- -- 96
2021-01-12 23:00:00 -8.4 0 Calma 5 Sudoeste 0 -- -- 98
2021-01-12 22:00:00 -6.7 2 Este 4 Nordeste 0 -- -- 95
2021-01-12 21:00:00 -6 0 Calma 3 Norte 0 -- -- 99
2021-01-12 20:00:00 -5.4 3 Sudoeste 6 Sudoeste 0 -- -- 98
2021-01-12 19:00:00 -4.1 0 Calma 5 Sur 0 -- -- 98
2021-01-12 18:00:00 -1.1 3 Sur 6 Sur 0 -- -- 91
2021-01-12 17:00:00 5.9 3 Sur 8 Sudeste 0 -- -- 71
2021-01-12 16:00:00 8.1 4 Sur 8 Sudeste 0 -- -- 64
2021-01-12 15:00:00 7.3 5 Sur 8 Sudeste 0 -- -- 65
2021-01-12 14:00:00 6.9 4 Sudeste 8 Sudeste 0 -- -- 68
2021-01-12 13:00:00 6 0 Calma 4 Sur 0 -- -- 66
2021-01-12 12:00:00 1.6 0 Calma 5 Sudeste 0 -- -- 88
2021-01-12 11:00:00 -2.7 0 Calma 4 Sudoeste 0 -- -- 95
2021-01-12 10:00:00 -9.7 2 Sur 4 Sur 0 -- -- 95
2021-01-12 09:00:00 -12.2 3 Sur 6 Sudoeste 0 -- -- 95
2021-01-12 08:00:00 -13.7 0 Calma 5 Sudoeste 0 -- -- 93
2021-01-12 07:00:00 -14.3 0 Calma 4 Sudoeste 0 -- -- 92
2021-01-12 06:00:00 -15.4 4 Sudoeste 5 Sudoeste 0 -- -- 95
2021-01-12 05:00:00 -15.9 2 Sudoeste 6 Sudoeste 0 -- -- 92
2021-01-12 04:00:00 -16 0 Calma 4 Sur 0 -- -- 91
2021-01-12 03:00:00 -16.1 2 Sudoeste 6 Sudoeste 0 -- -- 93
2021-01-12 02:00:00 -15.6 0 Calma 6 Sur 0 -- -- 92
2021-01-12 01:00:00 -15.2 0 Calma 3 Nordeste 0 -- -- 92
2021-01-12 00:00:00 -14.4 0 Calma 4 Sudeste 0 -- -- 95
2021-01-11 23:00:00 -13.4 0 Calma 4 Sudoeste 0 -- -- 94
2021-01-11 22:00:00 -12.2 0 Calma 7 Sudeste 0 -- -- 93
2021-01-11 21:00:00 -11.3 3 Sur 6 Sudeste 0 -- -- 94
2021-01-11 20:00:00 -9.9 0 Calma 7 Sudeste 0 -- -- 93
2021-01-11 19:00:00 -8.1 5 Sudeste 7 Este 0 -- -- 91
2021-01-11 18:00:00 -6.2 2 Este 12 Norte 0 -- -- 86
2021-01-11 17:00:00 -1.9 7 Norte 17 Noroeste 0 -- -- 69
2021-01-11 16:00:00 -0.6 9 Norte 20 Norte 0 -- -- 65
2021-01-11 15:00:00 -1.3 12 Norte 26 Norte 0 -- -- 70
2021-01-11 14:00:00 -2 16 Norte 27 Norte 0 -- -- 72
2021-01-11 13:00:00 -2.2 14 Norte 23 Norte 0 -- -- 74
2021-01-11 12:00:00 -3.2 13 Norte 21 Norte 0.2 -- -- 78
2021-01-11 11:00:00 -6.3 2 Norte 18 Norte 0 -- -- 88
2021-01-11 10:00:00 -8.2 5 Nordeste 12 Norte 0 -- -- 93
2021-01-11 09:00:00 -10.4 0 Calma 9 Norte 0 -- -- 95
2021-01-11 08:00:00 -10.5 5 Norte 13 Nordeste 0 -- -- 94
2021-01-11 07:00:00 -11 4 Norte 10 Nordeste 0 -- -- 93
2021-01-11 06:00:00 -9.2 6 Nordeste 10 Norte 0 -- -- 97
2021-01-11 05:00:00 -8.9 4 Nordeste 10 Noroeste 0 -- -- 91
2021-01-11 04:00:00 -9.4 4 Nordeste 9 Nordeste 0 -- -- 96
2021-01-11 03:00:00 -8.9 5 Norte 18 Norte 0 -- -- 90
2021-01-11 02:00:00 -6.1 12 Norte 23 Norte 0 -- -- 88
2021-01-11 01:00:00 -5.7 15 Norte 23 Norte 0 -- -- 88
2021-01-11 00:00:00 -4.5 10 Norte 29 Norte 0 -- -- 91
2021-01-10 23:00:00 -4.2 15 Norte 33 Norte 0 -- -- 92
2021-01-10 22:00:00 -3.7 16 Norte 29 Norte 0 -- -- 93
2021-01-10 21:00:00 -3.4 18 Norte 26 Norte 0 -- -- 93
2021-01-10 20:00:00 -3.8 5 Norte 8 Norte 0 -- -- 95
2021-01-10 19:00:00 -3.5 5 Norte 8 Norte 0 -- -- 94
2021-01-10 18:00:00 -3.1 6 Norte 15 Norte 0 -- -- 92
2021-01-10 17:00:00 -3 12 Norte 19 Norte 0 -- -- 91
2021-01-10 16:00:00 -3.2 17 Norte 26 Norte 0 -- -- 92
2021-01-10 15:00:00 -2.9 19 Norte 26 Norte 0 -- -- 90
2021-01-10 14:00:00 -2.9 15 Norte 24 Norte 0 -- -- 90
2021-01-10 13:00:00 -2.7 16 Norte 27 Norte 0 -- -- 90
2021-01-10 12:00:00 -3 13 Norte 23 Norte 0 -- -- 91
2021-01-10 11:00:00 -3.8 13 Norte 20 Norte 0 -- -- 95
2021-01-10 10:00:00 -5.2 5 Norte 8 Nordeste 0 -- -- 95
2021-01-10 09:00:00 -7 5 Norte 8 Nordeste 0 -- -- 96
2021-01-10 08:00:00 -7.8 0 Calma 5 Nordeste 0 -- -- 98
2021-01-10 07:00:00 -8.2 2 Nordeste 12 Nordeste 0 -- -- 96
2021-01-10 06:00:00 -4.5 9 Norte 13 Norte 0 -- -- 94
2021-01-10 05:00:00 -3.8 7 Norte 12 Noroeste 0 -- -- 98
2021-01-10 04:00:00 -3.8 8 Norte 15 Norte 0 -- -- 98
2021-01-10 03:00:00 -3.7 9 Norte 15 Norte 0 -- -- 98
2021-01-10 02:00:00 -3.9 2 Oeste 11 Norte 0 -- -- 98
2021-01-10 01:00:00 -4.3 2 Norte 10 Norte 0 -- -- 97
2021-01-10 00:00:00 -4.2 4 Nordeste 14 Nordeste 0 -- -- 98
2021-01-09 23:00:00 -4.3 8 Norte 13 Norte 0 -- -- 97
2021-01-09 22:00:00 -4.1 7 Nordeste 11 Nordeste 0 -- -- 95
2021-01-09 21:00:00 -4 5 Norte 10 Norte 0 -- -- 94
2021-01-09 20:00:00 -4.2 2 Norte 6 Nordeste 0 -- -- 94
2021-01-09 19:00:00 -3.9 5 Nordeste 8 Nordeste 0 -- -- 92
2021-01-09 18:00:00 -3.5 5 Norte 9 Nordeste 0.2 -- -- 89
2021-01-09 17:00:00 -2.8 4 Nordeste 9 Norte 0 -- -- 88
2021-01-09 16:00:00 -2.4 6 Norte 14 Norte 0.4 -- -- 88
2021-01-09 15:00:00 -2.7 10 Norte 16 Norte 0 -- -- 89
2021-01-09 14:00:00 -2.6 10 Norte 16 Norte 0.6 -- -- 91
2021-01-09 13:00:00 -2.1 7 Norte 12 Norte 0 -- -- 91
2021-01-09 12:00:00 -3.2 9 Norte 13 Norte 0.4 -- -- 94
2021-01-09 11:00:00 -3.9 9 Norte 14 Norte 0.6 -- -- 94
2021-01-09 10:00:00 -3.9 8 Norte 11 Noroeste 0.4 -- -- 96
2021-01-09 09:00:00 -4.1 5 Noroeste 13 Norte 0 -- -- 96
2021-01-09 08:00:00 -3.9 6 Norte 15 Norte 0.4 -- -- 98
2021-01-09 07:00:00 -3.4 11 Norte 15 Norte 0.4 -- -- 97
2021-01-09 06:00:00 -3.3 10 Norte 22 Nordeste 0.8 -- -- 97
2021-01-09 05:00:00 -3 10 Nordeste 21 Norte 0.6 -- -- 96
2021-01-09 04:00:00 -2.7 10 Norte 19 Nordeste 0.4 -- -- 97
2021-01-09 03:00:00 -2.4 13 Norte 19 Norte 0.6 -- -- 98
2021-01-09 02:00:00 -2.2 12 Norte 20 Nordeste 0.2 -- -- 98
2021-01-09 01:00:00 -2.2 7 Noroeste 15 Norte 0.2 -- -- 98
2021-01-09 00:00:00 -2.2 8 Norte 15 Norte 0.4 -- -- 98
2021-01-08 23:00:00 -2.1 5 Noroeste 14 Norte 0.8 -- -- 98
2021-01-08 22:00:00 -2 10 Norte 14 Nordeste 0.8 -- -- 98
2021-01-08 21:00:00 -1.9 9 Norte 16 Noroeste 1.6 -- -- 98
2021-01-08 20:00:00 -2 6 Norte 15 Noroeste 1.4 -- -- 98
2021-01-08 19:00:00 -2 4 Noroeste 9 Norte 1.4 -- -- 98
2021-01-08 18:00:00 -2 3 Nordeste 6 Oeste 1.2 -- -- 97
2021-01-08 17:00:00 -1.8 0 Calma 3 Sur 0.8 -- -- 96
2021-01-08 16:00:00 -1.6 2 Noroeste 10 Oeste 0.8 -- -- 95
2021-01-08 15:00:00 -1.6 3 Noroeste 8 Noroeste 0.8 -- -- 95
2021-01-08 14:00:00 -2 0 Calma 8 Noroeste 0.6 -- -- 94
2021-01-08 13:00:00 -3.2 4 Nordeste 11 Norte 0 -- -- 96
2021-01-08 12:00:00 -3.8 10 Norte 13 Norte 0 -- -- 96
2021-01-08 11:00:00 -5.2 3 Norte 6 Norte 0 -- -- 95
2021-01-08 10:00:00 -6.3 2 Noroeste 7 Sudoeste 0 -- -- 95
2021-01-08 09:00:00 -8.8 0 Calma 5 Sur 0 -- -- 94
2021-01-08 08:00:00 -11.3 3 Sur 6 Sudoeste 0 -- -- 93
2021-01-08 07:00:00 -11.6 0 Calma 3 Sudoeste 0 -- -- 92
2021-01-08 06:00:00 -13.1 0 Calma 4 Sur 0 -- -- 92
2021-01-08 05:00:00 -12.7 2 Sur 5 Sudoeste 0 -- -- 93
2021-01-08 04:00:00 -12.4 0 Calma 4 Sudoeste 0 -- -- 93
2021-01-08 03:00:00 -11.8 0 Calma 4 Sur 0 -- -- 94
2021-01-08 02:00:00 -11.2 0 Calma 2 Sudoeste 0 -- -- 94
2021-01-08 01:00:00 -9.6 0 Calma 4 Sudeste 0 -- -- 94
2021-01-08 00:00:00 -8.1 0 Calma 5 Sudoeste 0 -- -- 95
2021-01-07 23:00:00 -8.3 2 Sudeste 9 Sudeste 0 -- -- 95
2021-01-07 22:00:00 -7.7 3 Sur 7 Sudeste 0 -- -- 95
2021-01-07 21:00:00 -5.9 4 Sudeste 8 Norte 0 -- -- 93
2021-01-07 20:00:00 -4 4 Norte 13 Noroeste 0 -- -- 89
2021-01-07 19:00:00 -2.5 8 Norte 12 Norte 0 -- -- 86
2021-01-07 18:00:00 -2.1 7 Norte 11 Norte 0 -- -- 85
2021-01-07 17:00:00 -1.6 7 Norte 10 Norte 0 -- -- 81
2021-01-07 16:00:00 -1.8 5 Nordeste 9 Nordeste 0 -- -- 83
2021-01-07 15:00:00 -1.8 6 Norte 12 Norte 0 -- -- 83
2021-01-07 14:00:00 -1.8 7 Norte 12 Norte 0 -- -- 84
2021-01-07 13:00:00 -1.9 6 Norte 12 Norte 0 -- -- 85
2021-01-07 12:00:00 -2.8 11 Norte 14 Norte 0 -- -- 90
2021-01-07 11:00:00 -3.8 2 Norte 4 Norte 0 -- -- 92
2021-01-07 10:00:00 -4.8 0 Calma 5 Norte 0 -- -- 94
2021-01-07 09:00:00 -5.3 0 Calma 4 Oeste 0 -- -- 95
2021-01-07 08:00:00 -6.2 0 Calma 4 Sur 0 -- -- 95
2021-01-07 07:00:00 -7.4 0 Calma 4 Sudoeste 0 -- -- 95
2021-01-07 06:00:00 -7.5 0 Calma 6 Sudeste 0 -- -- 94
2021-01-07 05:00:00 -7.6 0 Calma 4 Nordeste 0 -- -- 94
2021-01-07 04:00:00 -7.9 0 Calma 5 Sur 0 -- -- 94
2021-01-07 03:00:00 -8.2 0 Calma 3 Sudoeste 0 -- -- 95
2021-01-07 02:00:00 -9.2 0 Calma 4 Sudoeste 0 -- -- 94
2021-01-07 01:00:00 -9.1 0 Calma 3 Sudeste 0 -- -- 94
2021-01-07 00:00:00 -8.1 0 Calma 5 Sudeste 0 -- -- 93
2021-01-06 23:00:00 -7.2 3 Sudeste 8 Sudeste 0 -- -- 89
2021-01-06 22:00:00 -6.2 3 Sudeste 6 Sudeste 0 -- -- 88
2021-01-06 21:00:00 -5.4 0 Calma 5 Sudeste 0 -- -- 88
2021-01-06 20:00:00 -3.9 0 Calma 4 Sudeste 0 -- -- 87
2021-01-06 19:00:00 -3.5 3 Sur 6 Sur 0 -- -- 84
2021-01-06 18:00:00 -1.9 3 Sur 13 Sudoeste 0 -- -- 76
2021-01-06 17:00:00 -0.3 7 Sur 16 Sudoeste 0 -- -- 71
2021-01-06 16:00:00 2.8 8 Sur 16 Este 0 -- -- 58
2021-01-06 15:00:00 2.3 6 Sudoeste 19 Sudoeste 0 -- -- 57
2021-01-06 14:00:00 2.2 11 Sur 19 Sur 0 -- -- 54
2021-01-06 13:00:00 1.2 3 Norte 6 Nordeste 0 -- -- 53
2021-01-06 12:00:00 -2.2 0 Calma 4 Sudoeste 0 -- -- 71
2021-01-06 11:00:00 -4.5 0 Calma 4 Sur 0 -- -- 83
2021-01-06 10:00:00 -12.9 0 Calma 3 Sur 0 -- -- 93
2021-01-06 09:00:00 -13.8 3 Sur 4 Sur 0 -- -- 93
2021-01-06 08:00:00 -14 0 Calma 3 Sudoeste 0 -- -- 93
2021-01-06 07:00:00 -14 0 Calma 4 Sudoeste 0 -- -- 92
2021-01-06 06:00:00 -13.4 0 Calma 6 Sudoeste 0 -- -- 93
2021-01-06 05:00:00 -13.5 2 Sudoeste 5 Sudoeste 0 -- -- 92
2021-01-06 04:00:00 -12.8 0 Calma 4 Sur 0 -- -- 93
2021-01-06 03:00:00 -12.3 0 Calma 5 Sur 0 -- -- 93
2021-01-06 02:00:00 -12.2 0 Calma 6 Sudoeste 0 -- -- 93
2021-01-06 01:00:00 -11.8 0 Calma 5 Sudoeste 0 -- -- 94
2021-01-06 00:00:00 -10.8 0 Calma 4 Sudoeste 0 -- -- 95
2021-01-05 23:00:00 -9.9 2 Sur 4 Sudoeste 0 -- -- 95
2021-01-05 22:00:00 -9.5 0 Calma 5 Sur 0 -- -- 91
2021-01-05 21:00:00 -8.1 0 Calma 9 Sudoeste 0 -- -- 90
2021-01-05 20:00:00 -6.1 6 Sur 8 Sur 0 -- -- 85
2021-01-05 19:00:00 -3.8 5 Sudoeste 10 Sur 0 -- -- 83
2021-01-05 18:00:00 -2.1 6 Sur 15 Sur 0 -- -- 78
2021-01-05 17:00:00 1.7 9 Sur 23 Sur 0 -- -- 64
2021-01-05 16:00:00 2.2 12 Sur 21 Sur 0 -- -- 62
2021-01-05 15:00:00 2 12 Sudoeste 19 Sur 0 -- -- 62
2021-01-05 14:00:00 1.3 11 Sudoeste 19 Sur 0 -- -- 66
2021-01-05 13:00:00 1.9 3 Sur 9 Sudoeste 0 -- -- 52
2021-01-05 12:00:00 -1.5 2 Norte 4 Nordeste 0 -- -- 69
2021-01-05 11:00:00 -4.4 0 Calma 5 Sudoeste 0 -- -- 83
2021-01-05 10:00:00 -12 4 Sudoeste 10 Sudoeste 0 -- -- 93
2021-01-05 09:00:00 -13.5 0 Calma 6 Sudeste 0 -- -- 92
2021-01-05 08:00:00 -13.1 0 Calma 2 Sudoeste 0 -- -- 94
2021-01-05 07:00:00 -12.7 0 Calma 4 Sudoeste 0 -- -- 93
2021-01-05 06:00:00 -12.1 3 Sudoeste 4 Sudoeste 0 -- -- 94
2021-01-05 05:00:00 -11.2 2 Sudoeste 6 Sudeste 0 -- -- 95
2021-01-05 04:00:00 -10.6 0 Calma 6 Sudeste 0 -- -- 94
2021-01-05 03:00:00 -9.8 0 Calma 5 Sudoeste 0 -- -- 94
2021-01-05 02:00:00 -9.5 0 Calma 4 Sur 0 -- -- 94
2021-01-05 01:00:00 -8.2 0 Calma 6 Sur 0 -- -- 90
2021-01-05 00:00:00 -7.4 3 Sudeste 10 Sudeste 0 -- -- 89
2021-01-04 23:00:00 -5.2 4 Sudeste 14 Nordeste 0 -- -- 84
2021-01-04 22:00:00 -4.6 6 Este 21 Norte 0 -- -- 81
2021-01-04 21:00:00 -3.6 5 Nordeste 24 Norte 0 -- -- 77
2021-01-04 20:00:00 -3.5 10 Norte 16 Nordeste 0 -- -- 77
2021-01-04 19:00:00 -2.6 13 Norte 18 Norte 0 -- -- 79
2021-01-04 18:00:00 -1.6 6 Norte 18 Norte 0 -- -- 74
2021-01-04 17:00:00 -0.7 9 Nordeste 24 Norte 0 -- -- 73
2021-01-04 16:00:00 -0.4 17 Norte 31 Norte 0 -- -- 68
2021-01-04 15:00:00 0.7 15 Norte 24 Norte 0 -- -- 61
2021-01-04 14:00:00 0 8 Norte 21 Oeste 0 -- -- 63
2021-01-04 13:00:00 0.1 7 Norte 20 Norte 0 -- -- 64
2021-01-04 12:00:00 -0.4 9 Oeste 22 Oeste 0 -- -- 66
2021-01-04 11:00:00 -1.8 11 Norte 24 Norte 0 -- -- 71
2021-01-04 10:00:00 -1.6 5 Noroeste 14 Norte 0 -- -- 72
2021-01-04 09:00:00 -2.2 6 Este 14 Este 0 -- -- 75
2021-01-04 08:00:00 -2.3 8 Este 19 Nordeste 0 -- -- 76
2021-01-04 07:00:00 -2.4 4 Nordeste 17 Nordeste 0 -- -- 75
2021-01-04 06:00:00 -2 8 Nordeste 26 Norte 0 -- -- 73
2021-01-04 05:00:00 -1.5 10 Nordeste 25 Norte 0 -- -- 78
2021-01-04 04:00:00 -1.3 8 Norte 26 Norte 0 -- -- 82
2021-01-04 03:00:00 -1.4 13 Norte 23 Norte 0 -- -- 88
2021-01-04 02:00:00 -1.5 5 Nordeste 26 Norte 0 -- -- 86
2021-01-04 01:00:00 -1.3 4 Sudeste 13 Nordeste 0 -- -- 81
2021-01-04 00:00:00 -1.2 4 Nordeste 13 Sudeste 0 -- -- 81
2021-01-03 23:00:00 -1.1 5 Nordeste 17 Noroeste 0 -- -- 77
2021-01-03 22:00:00 -1.8 8 Norte 24 Norte 0 -- -- 76
2021-01-03 21:00:00 -1.5 15 Nordeste 31 Norte 0 -- -- 73
2021-01-03 20:00:00 -1.4 14 Norte 32 Norte 0 -- -- 74
2021-01-03 19:00:00 -0.5 13 Norte 25 Noroeste 0 -- -- 74
2021-01-03 18:00:00 -0.6 9 Norte 25 Norte 0 -- -- 69
2021-01-03 17:00:00 1 12 Norte 34 Norte 0 -- -- 63
2021-01-03 16:00:00 2.5 14 Norte 29 Norte 0 -- -- 55
2021-01-03 15:00:00 3.2 10 Noroeste 25 Oeste 0 -- -- 53
2021-01-03 14:00:00 2.7 11 Norte 22 Noroeste 0 -- -- 52
2021-01-03 13:00:00 2.5 9 Oeste 20 Oeste 0 -- -- 56
2021-01-03 12:00:00 1.6 6 Noroeste 18 Noroeste 0 -- -- 55
2021-01-03 11:00:00 -0.4 9 Norte 14 Norte 0 -- -- 67
2021-01-03 10:00:00 -6.7 3 Oeste 7 Noroeste 0 -- -- 91
2021-01-03 09:00:00 -7 2 Sudoeste 10 Sudeste 0 -- -- 91
2021-01-03 08:00:00 -5.6 2 Nordeste 19 Nordeste 0 -- -- 83
2021-01-03 07:00:00 -3.8 12 Nordeste 23 Norte 0 -- -- 76
2021-01-03 06:00:00 -3.2 14 Norte 31 Norte 0 -- -- 74
2021-01-03 05:00:00 -3.3 17 Norte 32 Nordeste 0 -- -- 75
2021-01-03 04:00:00 -4.1 14 Nordeste 24 Norte 0 -- -- 83
2021-01-03 03:00:00 -3.8 15 Norte 35 Noroeste 0 -- -- 80
2021-01-03 02:00:00 -3.1 19 Norte 37 Norte 0 -- -- 79
2021-01-03 01:00:00 -3 17 Norte 30 Noroeste 0 -- -- 79
2021-01-03 00:00:00 -2.7 19 Norte 29 Norte 0 -- -- 77
2021-01-02 23:00:00 -2.4 14 Norte 28 Norte 0 -- -- 76
2021-01-02 22:00:00 -2.7 20 Norte 40 Norte 0 -- -- 75
2021-01-02 21:00:00 -2.4 27 Norte 41 Norte 0 -- -- 72
2021-01-02 20:00:00 -2.7 23 Norte 39 Norte 0 -- -- 73
2021-01-02 19:00:00 -3.4 17 Norte 30 Norte 0 -- -- 73
2021-01-02 18:00:00 -3.1 21 Norte 32 Norte 0 -- -- 72
2021-01-02 17:00:00 -0.7 18 Norte 26 Norte 0 -- -- 63
2021-01-02 16:00:00 -0.3 15 Norte 38 Norte 0 -- -- 61
2021-01-02 15:00:00 -1.1 16 Norte 30 Norte 0 -- -- 59
2021-01-02 14:00:00 -1.1 13 Norte 32 Nordeste 0 -- -- 66